Time;durP1;ratioP1;P1;durP2;ratioP2;P2;SDS_P1;SDS_P2;PMS_P1;PMS_P2;Temp;Humidity;BMP_temperature;BMP_pressure;BME280_temperature;BME280_humidity;BME280_pressure;Samples;Min_cycle;Max_cycle;Signal;HPM_P1;HPM_P2
2022/07/09 00:00:08;;;;;;;3.30;1.37;;;;;;;17.41;100.00;100179.31;4984764;28;20222;-78
2022/07/09 00:02:36;;;;;;;3.33;2.00;;;;;;;17.52;100.00;100178.50;4989983;28;20230;-78
2022/07/09 00:05:05;;;;;;;3.00;1.40;;;;;;;17.51;100.00;100176.78;4991097;28;20195;-78
2022/07/09 00:07:35;;;;;;;3.37;1.70;;;;;;;17.55;100.00;100177.41;4991401;28;20244;-78
2022/07/09 00:10:04;;;;;;;4.67;2.20;;;;;;;17.46;100.00;100182.50;4987865;28;20203;-78
2022/07/09 00:12:34;;;;;;;3.13;2.07;;;;;;;17.35;100.00;100178.94;4986416;28;20226;-78
2022/07/09 00:15:02;;;;;;;5.37;2.20;;;;;;;17.31;100.00;100185.50;4985471;28;20200;-78
2022/07/09 00:17:31;;;;;;;3.70;2.47;;;;;;;17.28;100.00;100181.22;4989575;28;20202;-78
2022/07/09 00:20:01;;;;;;;3.33;2.33;;;;;;;17.09;100.00;100184.44;4987979;28;20223;-78
2022/07/09 00:22:29;;;;;;;3.93;2.30;;;;;;;17.04;100.00;100181.22;4987907;28;20214;-78
2022/07/09 00:24:58;;;;;;;3.00;2.30;;;;;;;17.02;100.00;100182.31;4987980;28;20203;-78
2022/07/09 00:27:26;;;;;;;4.97;2.17;;;;;;;16.88;100.00;100180.66;4991426;28;20269;-78
2022/07/09 00:29:56;;;;;;;3.60;2.10;;;;;;;16.56;100.00;100172.28;4990742;28;20187;-78
2022/07/09 00:32:24;;;;;;;2.47;1.80;;;;;;;16.36;100.00;100180.88;4989723;28;20699;-78
2022/07/09 00:34:53;;;;;;;3.97;2.00;;;;;;;16.50;100.00;100183.41;4990716;28;20278;-78
2022/07/09 00:37:21;;;;;;;5.43;2.20;;;;;;;16.37;100.00;100185.25;4987597;28;20584;-78
2022/07/09 00:39:49;;;;;;;3.53;2.27;;;;;;;16.42;100.00;100183.97;4988711;28;20207;-77
2022/07/09 00:42:18;;;;;;;3.20;2.27;;;;;;;16.49;100.00;100184.38;4969281;28;20213;-78
2022/07/09 00:44:47;;;;;;;5.00;2.20;;;;;;;16.69;100.00;100177.59;4972691;28;20216;-78
2022/07/09 00:47:16;;;;;;;4.03;2.37;;;;;;;16.71;100.00;100178.38;4967706;28;20215;-78
2022/07/09 00:49:45;;;;;;;3.37;2.00;;;;;;;16.67;100.00;100179.53;4967514;28;20650;-78
2022/07/09 00:52:17;;;;;;;3.90;2.10;;;;;;;16.71;100.00;100175.69;4966414;28;20218;-78
2022/07/09 00:54:45;;;;;;;4.57;1.80;;;;;;;16.63;100.00;100173.56;4966316;28;20204;-78
2022/07/09 00:57:14;;;;;;;3.60;2.10;;;;;;;16.50;100.00;100165.56;4966300;28;20279;-78
2022/07/09 00:59:42;;;;;;;2.73;1.90;;;;;;;16.47;100.00;100168.44;4970116;28;20199;-77
2022/07/09 01:02:11;;;;;;;2.77;1.90;;;;;;;16.53;100.00;100165.34;4985218;28;20203;-78
2022/07/09 01:04:41;;;;;;;7.23;2.37;;;;;;;16.34;100.00;100170.31;4985508;28;20221;-78
2022/07/09 01:07:09;;;;;;;3.10;1.70;;;;;;;16.42;100.00;100167.94;4989864;28;20654;-78
2022/07/09 01:09:39;;;;;;;2.93;2.00;;;;;;;16.50;100.00;100164.69;4990036;28;20195;-78
2022/07/09 01:12:08;;;;;;;4.07;2.00;;;;;;;16.50;100.00;100159.34;4987439;28;20237;-77
2022/07/09 01:14:36;;;;;;;3.13;2.40;;;;;;;16.53;100.00;100153.78;4990122;28;20203;-78
2022/07/09 01:17:07;;;;;;;3.17;1.90;;;;;;;16.44;100.00;100155.31;5001413;28;20214;-78
2022/07/09 01:19:35;;;;;;;3.57;1.90;;;;;;;16.47;100.00;100152.41;4986095;28;20208;-78
2022/07/09 01:22:05;;;;;;;2.30;1.80;;;;;;;16.50;100.00;100156.66;4986653;28;20226;-78
2022/07/09 01:24:34;;;;;;;2.80;2.10;;;;;;;16.49;100.00;100150.47;4988250;28;20226;-78
2022/07/09 01:27:03;;;;;;;3.70;2.00;;;;;;;16.50;100.00;100148.63;4987260;28;20203;-78
2022/07/09 01:29:31;;;;;;;5.73;3.07;;;;;;;16.42;100.00;100151.03;4986279;28;20214;-78
2022/07/09 01:32:00;;;;;;;4.40;2.50;;;;;;;16.53;100.00;100145.75;4986660;28;20219;-78
2022/07/09 01:34:28;;;;;;;4.27;2.50;;;;;;;16.50;100.00;100148.63;4987383;28;20223;-78
2022/07/09 01:36:56;;;;;;;5.27;2.80;;;;;;;16.46;100.00;100147.16;4987643;28;20266;-78
2022/07/09 01:39:26;;;;;;;5.37;2.43;;;;;;;16.45;100.00;100140.97;4993077;28;20658;-78
2022/07/09 01:41:54;;;;;;;3.67;2.70;;;;;;;16.47;100.00;100135.50;4993119;28;20646;-78
2022/07/09 01:44:22;;;;;;;4.63;2.97;;;;;;;16.48;100.00;100134.53;4994473;28;20278;-78
2022/07/09 01:46:51;;;;;;;6.03;3.30;;;;;;;16.44;100.00;100141.94;4990206;28;20218;-78
2022/07/09 01:49:20;;;;;;;4.40;3.30;;;;;;;16.39;100.00;100143.22;4990132;28;20198;-78
2022/07/09 01:51:48;;;;;;;5.50;3.20;;;;;;;16.37;100.00;100137.97;4994048;28;20204;-78
2022/07/09 01:54:16;;;;;;;5.50;3.40;;;;;;;16.32;100.00;100132.13;4991277;28;20673;-78
2022/07/09 01:56:47;;;;;;;4.00;3.20;;;;;;;16.37;100.00;100131.78;4991155;28;20199;-78
2022/07/09 01:59:15;;;;;;;6.43;3.10;;;;;;;16.37;100.00;100135.31;4993322;28;20274;-78
2022/07/09 02:01:43;;;;;;;6.37;2.93;;;;;;;16.31;100.00;100133.09;4988237;28;20653;-78
2022/07/09 02:04:12;;;;;;;6.10;3.27;;;;;;;16.18;100.00;100129.56;4992199;28;20220;-78
2022/07/09 02:06:40;;;;;;;5.27;3.00;;;;;;;16.13;100.00;100123.72;4990341;28;20209;-78
2022/07/09 02:09:08;;;;;;;4.67;3.30;;;;;;;16.14;100.00;100122.75;4990171;28;20207;-78
2022/07/09 02:11:37;;;;;;;6.60;3.80;;;;;;;16.08;100.00;100120.50;4993653;28;20218;-78
2022/07/09 02:14:06;;;;;;;8.13;2.90;;;;;;;16.15;100.00;100119.97;4990040;28;20223;-79
2022/07/09 02:16:35;;;;;;;4.90;2.83;;;;;;;16.12;100.00;100122.03;4995134;28;20188;-78
2022/07/09 02:19:04;;;;;;;4.27;3.10;;;;;;;16.05;100.00;100123.41;4994470;28;20225;-78
2022/07/09 02:21:32;;;;;;;7.57;3.70;;;;;;;16.01;100.00;100115.59;4990021;28;20203;-79
2022/07/09 02:24:00;;;;;;;3.70;2.90;;;;;;;16.01;100.00;100118.25;4994148;28;20218;-78
2022/07/09 02:26:29;;;;;;;6.30;3.40;;;;;;;16.08;100.00;100115.16;4992047;28;20203;-78
2022/07/09 02:28:57;;;;;;;5.53;3.30;;;;;;;16.01;100.00;100104.91;4995767;28;20214;-78
2022/07/09 02:31:27;;;;;;;3.77;3.00;;;;;;;15.94;100.00;100116.16;4992845;28;20194;-78
2022/07/09 02:33:56;;;;;;;5.53;3.60;;;;;;;15.94;100.00;100114.34;4994571;28;20222;-78
2022/07/09 02:36:25;;;;;;;4.17;3.10;;;;;;;15.86;100.00;100105.16;4992582;28;20254;-79
2022/07/09 02:38:53;;;;;;;5.20;3.20;;;;;;;15.86;100.00;100100.66;4989066;28;20227;-79
2022/07/09 02:41:22;;;;;;;5.77;3.03;;;;;;;15.76;100.00;100101.41;4989531;28;20282;-78
2022/07/09 02:43:50;;;;;;;5.60;3.30;;;;;;;15.80;100.00;100098.41;4989392;28;20195;-79
2022/07/09 02:46:19;;;;;;;4.27;2.97;;;;;;;15.73;100.00;100103.34;4991927;28;20203;-78
2022/07/09 02:48:49;;;;;;;3.90;2.80;;;;;;;15.74;100.00;100094.38;4987448;28;20192;-78
2022/07/09 02:51:17;;;;;;;5.47;2.83;;;;;;;15.61;100.00;100090.84;4987657;28;20191;-79
2022/07/09 02:53:45;;;;;;;3.87;2.93;;;;;;;15.58;100.00;100092.84;4992021;28;20226;-78
2022/07/09 02:56:13;;;;;;;5.30;3.20;;;;;;;15.46;100.00;100094.56;4986824;28;20227;-78
2022/07/09 02:58:41;;;;;;;7.37;3.23;;;;;;;15.39;100.00;100094.13;4992151;28;20673;-78
2022/07/09 03:01:10;;;;;;;6.70;3.43;;;;;;;15.26;100.00;100101.28;4988187;28;20249;-78
2022/07/09 03:03:39;;;;;;;7.03;3.50;;;;;;;15.39;100.00;100104.78;4985462;28;20703;-78
2022/07/09 03:06:09;;;;;;;6.60;3.40;;;;;;;15.35;100.00;100097.97;4987409;28;20282;-78
2022/07/09 03:08:38;;;;;;;5.70;3.63;;;;;;;15.43;100.00;100100.09;4989340;28;20341;-78
2022/07/09 03:11:07;;;;;;;7.53;3.90;;;;;;;15.43;100.00;100102.75;4993059;28;20195;-78
2022/07/09 03:13:35;;;;;;;5.17;3.63;;;;;;;15.56;100.00;100102.78;4988613;28;20251;-78
2022/07/09 03:16:04;;;;;;;5.67;3.93;;;;;;;15.43;100.00;100097.41;4988999;28;20203;-78
2022/07/09 03:18:33;;;;;;;8.17;4.00;;;;;;;15.48;100.00;100097.13;4988905;28;20230;-78
2022/07/09 03:21:02;;;;;;;5.67;3.90;;;;;;;15.49;100.00;100106.84;4989864;28;20698;-78
2022/07/09 03:23:32;;;;;;;8.20;3.57;;;;;;;15.53;100.00;100105.66;4991720;28;20210;-78
2022/07/09 03:26:00;;;;;;;4.73;3.70;;;;;;;15.65;100.00;100096.84;4986200;28;20217;-78
2022/07/09 03:28:28;;;;;;;7.00;3.63;;;;;;;15.68;100.00;100096.63;4991538;28;20226;-78
2022/07/09 03:30:57;;;;;;;6.30;3.80;;;;;;;15.67;100.00;100100.25;4992816;28;20650;-78
2022/07/09 03:33:25;;;;;;;7.67;3.90;;;;;;;15.77;100.00;100095.97;4990026;28;20215;-78
2022/07/09 03:35:54;;;;;;;6.30;3.90;;;;;;;15.70;100.00;100095.53;4993629;28;20203;-78
2022/07/09 03:38:22;;;;;;;5.27;4.07;;;;;;;15.71;100.00;100091.91;4985856;28;20206;-77
2022/07/09 03:40:52;;;;;;;6.30;4.07;;;;;;;15.82;100.00;100096.47;4982535;28;20286;-78
2022/07/09 03:43:20;;;;;;;5.47;4.13;;;;;;;15.87;100.00;100089.00;4990171;28;20203;-79
2022/07/09 03:45:49;;;;;;;6.07;4.10;;;;;;;15.93;100.00;100093.06;4989354;28;20226;-78
2022/07/09 03:48:17;;;;;;;4.10;3.70;;;;;;;15.86;100.00;100095.31;4991193;28;20213;-78
2022/07/09 03:50:45;;;;;;;5.13;3.67;;;;;;;15.95;100.00;100101.84;4991185;28;20249;-78
2022/07/09 03:53:14;;;;;;;5.10;3.60;;;;;;;16.00;100.00;100094.31;4991143;28;20215;-78
2022/07/09 03:55:44;;;;;;;8.23;3.73;;;;;;;16.00;100.00;100087.16;4984919;28;20215;-78
2022/07/09 03:58:14;;;;;;;6.23;4.10;;;;;;;16.03;100.00;100084.28;4990952;28;20557;-78
2022/07/09 04:00:42;;;;;;;8.30;4.00;;;;;;;15.90;100.00;100085.25;4988753;28;20203;-78
2022/07/09 04:03:10;;;;;;;7.20;3.97;;;;;;;16.03;100.00;100084.28;4986648;28;20199;-78
2022/07/09 04:05:39;;;;;;;5.13;3.87;;;;;;;15.91;100.00;100086.97;4991058;28;20281;-78
2022/07/09 04:08:07;;;;;;;8.37;4.43;;;;;;;15.98;100.00;100083.75;4988944;28;20274;-78
2022/07/09 04:10:35;;;;;;;7.47;3.70;;;;;;;15.93;100.00;100090.41;4989920;28;20320;-78
2022/07/09 04:13:04;;;;;;;4.20;3.67;;;;;;;15.90;100.00;100087.94;4988285;28;20234;-78
2022/07/09 04:15:39;;;;;;;6.33;4.20;;;;;;;15.99;100.00;100084.59;4990474;28;20657;-78
2022/07/09 04:18:07;;;;;;;4.77;3.97;;;;;;;16.01;100.00;100093.34;4994035;28;20203;-78
2022/07/09 04:20:35;;;;;;;7.30;4.03;;;;;;;16.07;100.00;100098.28;4986357;28;20227;-78
2022/07/09 04:23:03;;;;;;;5.70;3.70;;;;;;;16.11;100.00;100097.06;4988757;28;20263;-78
2022/07/09 04:25:31;;;;;;;9.70;4.20;;;;;;;16.11;100.00;100088.22;4990952;28;20210;-79
2022/07/09 04:28:00;;;;;;;5.63;3.80;;;;;;;16.08;100.00;100091.97;5000924;28;20199;-78
2022/07/09 04:30:28;;;;;;;7.53;4.00;;;;;;;16.17;100.00;100096.66;4986740;28;20693;-78
2022/07/09 04:33:00;;;;;;;6.53;4.17;;;;;;;16.23;100.00;100098.03;4987659;28;20203;-78
2022/07/09 04:35:28;;;;;;;4.73;3.37;;;;;;;16.27;100.00;100097.69;4987693;28;20223;-78
2022/07/09 04:37:56;;;;;;;4.47;4.07;;;;;;;16.25;100.00;100093.44;4970754;28;20259;-78
2022/07/09 04:40:25;;;;;;;5.37;3.90;;;;;;;16.10;100.00;100094.53;4968674;28;20208;-78
2022/07/09 04:42:53;;;;;;;7.77;4.23;;;;;;;16.18;100.00;100098.34;4970915;28;20199;-78
2022/07/09 04:45:21;;;;;;;5.97;3.90;;;;;;;16.44;100.00;100092.94;4971235;28;20234;-78
2022/07/09 04:47:50;;;;;;;4.40;3.93;;;;;;;16.51;100.00;100091.53;4969176;28;20192;-78
2022/07/09 04:50:20;;;;;;;5.53;4.27;;;;;;;16.48;100.00;100086.38;4969898;28;20219;-78
2022/07/09 04:52:48;;;;;;;8.33;4.00;;;;;;;16.60;100.00;100089.03;4970884;28;20211;-78
2022/07/09 04:55:16;;;;;;;4.37;3.70;;;;;;;16.61;100.00;100092.56;4969764;28;20307;-78
2022/07/09 04:57:45;;;;;;;7.07;4.13;;;;;;;16.65;100.00;100086.00;4968497;28;20204;-78
2022/07/09 05:00:15;;;;;;;9.50;4.07;;;;;;;16.63;100.00;100087.94;4968712;28;20217;-78
2022/07/09 05:02:45;;;;;;;7.07;4.23;;;;;;;16.79;100.00;100087.66;5009808;28;20198;-78
2022/07/09 05:05:15;;;;;;;5.30;3.93;;;;;;;16.73;100.00;100086.31;5005722;28;20205;-78
2022/07/09 05:07:44;;;;;;;6.40;4.20;;;;;;;16.73;100.00;100088.16;5010783;28;20191;-78
2022/07/09 05:10:13;;;;;;;4.63;4.23;;;;;;;16.82;100.00;100087.47;5008547;28;20198;-78
2022/07/09 05:12:42;;;;;;;10.97;4.23;;;;;;;16.96;100.00;100089.94;5008414;28;20221;-78
2022/07/09 05:15:11;;;;;;;5.50;3.87;;;;;;;16.99;100.00;100081.69;5011197;28;20277;-78
2022/07/09 05:17:39;;;;;;;4.63;4.07;;;;;;;16.96;100.00;100086.41;5010580;28;20207;-78
2022/07/09 05:20:10;;;;;;;5.40;3.57;;;;;;;17.09;100.00;100087.22;5013224;28;20213;-78
2022/07/09 05:22:39;;;;;;;5.27;3.70;;;;;;;17.00;100.00;100096.78;5014360;28;20688;-78
2022/07/09 05:25:10;;;;;;;6.13;3.97;;;;;;;16.68;100.00;100088.47;5013344;28;20281;-78
2022/07/09 05:27:43;;;;;;;5.67;3.83;;;;;;;16.75;100.00;100096.91;4984032;28;20199;-78
2022/07/09 05:30:13;;;;;;;5.33;4.20;;;;;;;16.76;100.00;100099.47;4972140;28;20203;-78
2022/07/09 05:32:46;;;;;;;5.37;4.07;;;;;;;16.76;100.00;100095.94;4971431;28;20191;-78
2022/07/09 05:35:17;;;;;;;4.60;4.13;;;;;;;16.75;100.00;100095.09;4976529;28;20235;-78
2022/07/09 05:37:45;;;;;;;5.77;4.43;;;;;;;16.72;100.00;100091.78;4990875;28;20277;-78
2022/07/09 05:40:15;;;;;;;6.33;4.07;;;;;;;16.73;100.00;100094.34;4993961;28;20198;-77
2022/07/09 05:42:43;;;;;;;6.40;3.83;;;;;;;16.80;100.00;100100.97;4989177;28;20210;-78
2022/07/09 05:45:11;;;;;;;7.30;4.20;;;;;;;16.80;100.00;100098.28;4991405;28;20282;-78
2022/07/09 05:47:39;;;;;;;6.07;4.03;;;;;;;16.67;100.00;100102.78;4992107;28;20757;-78
2022/07/09 05:50:08;;;;;;;5.40;4.50;;;;;;;16.75;100.00;100108.47;4993508;28;20274;-78
2022/07/09 05:52:37;;;;;;;7.63;4.73;;;;;;;16.85;100.00;100106.81;4986652;28;20195;-78
2022/07/09 05:55:06;;;;;;;6.40;4.30;;;;;;;16.92;100.00;100109.03;4987760;28;20629;-78
2022/07/09 05:57:37;;;;;;;5.90;4.30;;;;;;;17.04;100.00;100108.09;4987808;28;20547;-78
2022/07/09 06:00:07;;;;;;;5.13;4.17;;;;;;;17.09;100.00;100108.63;4984973;28;20199;-78
2022/07/09 06:02:35;;;;;;;7.03;4.30;;;;;;;17.13;100.00;100112.75;4989717;28;20642;-78
2022/07/09 06:05:04;;;;;;;9.67;4.37;;;;;;;17.27;100.00;100104.50;4988197;28;20222;-78
2022/07/09 06:07:32;;;;;;;6.63;4.63;;;;;;;17.30;100.00;100109.66;4991041;28;20262;-78
2022/07/09 06:10:00;;;;;;;5.07;4.07;;;;;;;17.52;100.00;100102.63;4989877;28;20211;-78
2022/07/09 06:12:29;;;;;;;6.30;4.70;;;;;;;17.54;100.00;100098.00;4990084;28;20275;-78
2022/07/09 06:14:58;;;;;;;5.93;4.20;;;;;;;17.55;100.00;100105.06;4988190;28;20310;-78
2022/07/09 06:17:26;;;;;;;7.83;4.43;;;;;;;17.61;100.00;100094.75;4938847;28;20200;-78
2022/07/09 06:19:55;;;;;;;8.20;4.30;;;;;;;17.44;100.00;100101.41;4990729;28;20207;-78
2022/07/09 06:22:23;;;;;;;6.77;4.47;;;;;;;17.56;100.00;100098.72;4990988;28;20195;-78
2022/07/09 06:24:51;;;;;;;6.73;4.77;;;;;;;17.62;100.00;100098.28;4991636;28;20222;-78
2022/07/09 06:27:19;;;;;;;12.60;5.03;;;;;;;17.77;100.00;100098.94;4992789;28;20204;-78
2022/07/09 06:29:48;;;;;;;6.07;4.17;;;;;;;17.90;100.00;100096.97;4987027;28;20206;-78
2022/07/09 06:32:19;;;;;;;8.00;4.30;;;;;;;17.93;100.00;100097.59;4984056;28;20206;-77
2022/07/09 06:34:47;;;;;;;6.77;4.23;;;;;;;18.09;100.00;100094.53;4989556;28;20219;-78
2022/07/09 06:37:16;;;;;;;7.10;4.40;;;;;;;18.18;100.00;100087.59;4992486;28;20234;-78
2022/07/09 06:39:48;;;;;;;7.83;4.33;;;;;;;18.11;100.00;100087.22;4987883;28;20199;-78
2022/07/09 06:42:18;;;;;;;8.17;4.27;;;;;;;18.35;100.00;100092.44;4989722;28;20199;-78
2022/07/09 06:44:46;;;;;;;7.50;4.67;;;;;;;18.49;100.00;100081.44;4993610;28;20211;-78
2022/07/09 06:47:14;;;;;;;9.73;4.53;;;;;;;18.50;100.00;100075.06;4991127;28;20199;-78
2022/07/09 06:49:44;;;;;;;6.63;4.23;;;;;;;18.58;100.00;100075.31;4989664;28;20211;-78
2022/07/09 06:52:13;;;;;;;6.53;4.57;;;;;;;18.67;100.00;100072.88;4992372;28;20210;-78
2022/07/09 06:54:41;;;;;;;7.27;4.40;;;;;;;18.61;100.00;100074.19;4992266;28;20214;-78
2022/07/09 06:57:10;;;;;;;5.57;4.53;;;;;;;18.73;100.00;100067.84;4989884;28;20303;-78
2022/07/09 06:59:38;;;;;;;7.17;5.10;;;;;;;18.68;100.00;100064.69;4986458;28;20230;-78
2022/07/09 07:02:06;;;;;;;6.60;4.70;;;;;;;18.99;100.00;100067.47;4989147;28;20214;-78
2022/07/09 07:04:35;;;;;;;8.07;4.83;;;;;;;18.82;100.00;100071.59;4992615;28;20195;-78
2022/07/09 07:07:05;;;;;;;7.77;5.07;;;;;;;18.76;100.00;100064.91;4992586;28;20199;-79
2022/07/09 07:09:33;;;;;;;8.37;5.03;;;;;;;18.53;100.00;100066.78;4992363;28;20195;-78
2022/07/09 07:12:02;;;;;;;11.93;5.97;;;;;;;18.83;100.00;100059.88;4992479;28;20213;-78
2022/07/09 07:14:32;;;;;;;8.50;4.93;;;;;;;19.13;100.00;100062.66;4985405;28;20247;-78
2022/07/09 07:17:00;;;;;;;9.07;6.00;;;;;;;19.24;100.00;100063.59;4986524;28;20686;-78
2022/07/09 07:19:28;;;;;;;9.63;7.00;;;;;;;19.49;100.00;100062.31;4988883;28;20202;-79
2022/07/09 07:21:56;;;;;;;10.20;8.00;;;;;;;19.35;100.00;100061.66;4992487;28;20203;-78
2022/07/09 07:24:26;;;;;;;11.57;7.40;;;;;;;19.39;100.00;100060.41;4989086;28;20195;-78
2022/07/09 07:26:56;;;;;;;11.30;7.20;;;;;;;19.41;100.00;100061.16;4990259;28;20638;-78
2022/07/09 07:29:24;;;;;;;15.13;7.93;;;;;;;19.59;100.00;100065.94;4992625;28;20274;-78
2022/07/09 07:31:53;;;;;;;11.87;6.70;;;;;;;19.93;100.00;100059.31;4987505;28;20211;-78
2022/07/09 07:34:23;;;;;;;10.57;7.17;;;;;;;19.99;100.00;100066.00;4990853;28;20199;-78
2022/07/09 07:36:52;;;;;;;9.63;6.80;;;;;;;20.01;100.00;100056.78;4988481;28;20237;-79
2022/07/09 07:39:24;;;;;;;8.83;5.60;;;;;;;20.32;100.00;100053.19;4986424;28;20223;-79
2022/07/09 07:41:54;;;;;;;8.63;5.70;;;;;;;20.18;100.00;100055.28;4991498;28;20285;-78
2022/07/09 07:44:22;;;;;;;11.37;6.37;;;;;;;20.41;100.00;100050.50;4991494;28;20203;-79
2022/07/09 07:46:51;;;;;;;11.43;5.43;;;;;;;20.21;100.00;100055.00;4989642;28;20198;-78
2022/07/09 07:49:20;;;;;;;11.27;6.17;;;;;;;20.58;100.00;100049.88;4991120;28;20187;-78
2022/07/09 07:51:48;;;;;;;9.13;6.10;;;;;;;20.78;100.00;100041.81;4998389;28;20214;-79
2022/07/09 07:54:16;;;;;;;8.13;5.60;;;;;;;21.06;100.00;100040.09;5003725;28;20210;-79
2022/07/09 07:56:44;;;;;;;9.60;5.40;;;;;;;20.93;100.00;100034.13;4991136;28;20216;-78
2022/07/09 07:59:14;;;;;;;9.33;5.20;;;;;;;20.92;100.00;100035.97;4986641;28;20195;-78
2022/07/09 08:01:42;;;;;;;8.83;4.90;;;;;;;21.05;100.00;100041.94;4983123;28;20199;-79
2022/07/09 08:04:11;;;;;;;8.73;5.30;;;;;;;21.09;100.00;100045.19;4991866;28;20260;-79
2022/07/09 08:06:39;;;;;;;9.87;5.83;;;;;;;20.90;100.00;100032.56;4991404;28;20650;-79
2022/07/09 08:09:07;;;;;;;9.27;5.00;;;;;;;20.85;100.00;100029.47;4987145;28;20644;-79
2022/07/09 08:11:36;;;;;;;9.43;5.57;;;;;;;21.24;100.00;100038.38;4986629;28;20314;-79
2022/07/09 08:14:05;;;;;;;10.73;4.57;;;;;;;21.51;100.00;100025.97;4988143;28;20716;-79
2022/07/09 08:16:35;;;;;;;7.53;4.57;;;;;;;21.64;100.00;100015.72;4990846;28;20681;-79
2022/07/09 08:19:03;;;;;;;10.03;4.90;;;;;;;21.64;100.00;100013.88;4986951;28;20203;-78
2022/07/09 08:21:31;;;;;;;6.73;4.70;;;;;;;21.19;100.00;100018.22;4991075;28;20204;-79
2022/07/09 08:24:04;;;;;;;10.00;5.30;;;;;;;21.12;100.00;100008.00;5003456;28;20211;-78
2022/07/09 08:26:32;;;;;;;6.73;4.43;;;;;;;21.40;100.00;100018.91;4987585;28;20213;-78
2022/07/09 08:29:00;;;;;;;5.30;4.37;;;;;;;21.47;100.00;100011.94;4986634;28;20206;-78
2022/07/09 08:31:28;;;;;;;9.43;4.80;;;;;;;21.51;100.00;100010.63;4990988;28;20223;-79
2022/07/09 08:33:58;;;;;;;9.07;4.43;;;;;;;21.51;100.00;100007.94;4989937;28;20295;-78
2022/07/09 08:36:27;;;;;;;8.17;3.93;;;;;;;21.42;100.00;100015.09;4985795;28;20693;-78
2022/07/09 08:38:55;;;;;;;8.47;5.30;;;;;;;21.40;100.00;100008.13;4987248;28;20225;-78
2022/07/09 08:41:24;;;;;;;9.67;5.73;;;;;;;21.28;100.00;100012.84;4991936;28;20203;-78
2022/07/09 08:43:54;;;;;;;7.77;5.90;;;;;;;21.61;100.00;100014.13;4991759;28;20199;-79
2022/07/09 08:46:23;;;;;;;9.60;5.87;;;;;;;22.03;100.00;99999.34;4988059;28;20195;-78
2022/07/09 08:48:53;;;;;;;9.07;6.07;;;;;;;22.35;100.00;99993.47;4992350;28;20195;-79
2022/07/09 08:51:24;;;;;;;9.57;5.63;;;;;;;22.62;100.00;99995.25;4991068;28;20213;-79
2022/07/09 08:53:54;;;;;;;8.50;5.23;;;;;;;22.90;100.00;99986.09;4988409;28;20195;-78
2022/07/09 08:56:23;;;;;;;6.28;4.68;;;;;;;22.94;100.00;99976.66;4993997;28;20219;-79
2022/07/09 08:58:51;;;;;;;9.00;5.03;;;;;;;22.92;100.00;99984.06;4988684;28;20672;-79
2022/07/09 09:01:19;;;;;;;7.28;4.65;;;;;;;22.82;100.00;99980.59;4991878;28;20202;-79
2022/07/09 09:03:48;;;;;;;8.20;5.60;;;;;;;22.82;100.00;99980.59;4992953;28;20223;-79
2022/07/09 09:06:16;;;;;;;9.35;5.25;;;;;;;22.62;100.00;99979.91;4993743;28;20229;-78
2022/07/09 09:08:46;;;;;;;6.22;4.47;;;;;;;22.53;100.00;99981.69;4997029;28;20206;-79
2022/07/09 09:11:17;;;;;;;5.35;4.85;;;;;;;22.42;100.00;99972.97;4986600;28;20199;-79
2022/07/09 09:13:47;;;;;;;6.07;5.00;;;;;;;22.00;100.00;99981.59;4998332;28;20203;-78
2022/07/09 09:16:17;;;;;;;7.43;5.47;;;;;;;21.63;100.00;99981.66;4990788;28;20306;-79
2022/07/09 09:18:47;;;;;;;8.30;5.20;;;;;;;21.38;100.00;99980.47;4992594;28;20258;-79
2022/07/09 09:21:16;;;;;;;12.03;5.70;;;;;;;21.56;100.00;99985.94;4993709;28;20676;-78
2022/07/09 09:23:49;;;;;;;8.27;4.87;;;;;;;21.68;100.00;99976.66;4993389;28;20199;-79
2022/07/09 09:26:18;;;;;;;7.03;4.40;;;;;;;21.85;100.00;99985.81;4993715;28;20649;-78
2022/07/09 09:28:48;;;;;;;6.13;4.30;;;;;;;21.61;100.00;99984.47;4990779;28;20695;-79
2022/07/09 09:31:20;;;;;;;10.37;5.57;;;;;;;21.75;100.00;99976.91;4993598;28;20233;-78
2022/07/09 09:33:49;;;;;;;5.57;5.07;;;;;;;21.80;100.00;99980.84;4986665;28;20217;-79
2022/07/09 09:36:32;;;;;;;4.13;3.30;;;;;;;22.45;100.00;99969.94;4993348;28;20238;-79
2022/07/09 09:39:24;;;;;;;4.63;3.30;;;;;;;22.85;100.00;99977.59;4997919;28;20222;-78
2022/07/09 09:41:54;;;;;;;4.10;3.67;;;;;;;23.26;100.00;99958.94;4990233;28;20187;-79
2022/07/09 09:44:26;;;;;;;4.33;3.80;;;;;;;23.53;100.00;99960.63;4993320;28;20202;-79
2022/07/09 09:46:55;;;;;;;4.00;3.60;;;;;;;23.60;100.00;99961.72;5004504;28;20605;-79
2022/07/09 09:49:24;;;;;;;3.83;3.33;;;;;;;23.69;100.00;99966.16;4991283;28;20665;-78
2022/07/09 09:52:01;;;;;;;4.75;3.60;;;;;;;23.54;100.00;99970.44;4992731;28;20202;-79
2022/07/09 09:54:33;;;;;;;4.97;3.45;;;;;;;23.45;100.00;99957.88;4989932;28;20685;-78
2022/07/09 09:57:07;;;;;;;4.35;3.33;;;;;;;22.94;100.00;99965.00;4982790;28;20227;-78
2022/07/09 09:59:37;;;;;;;5.32;3.33;;;;;;;22.48;100.00;99959.69;4991079;28;20274;-78
2022/07/09 10:02:09;;;;;;;6.30;4.00;;;;;;;;;;4989898;28;20286;-79
2022/07/09 10:04:40;;;;;;;5.18;3.78;;;;;;;22.09;100.00;99959.13;4992705;28;20291;-79
2022/07/09 10:07:10;;;;;;;4.38;3.97;;;;;;;22.60;100.00;99952.22;4990351;28;20206;-79
2022/07/09 10:09:40;;;;;;;3.80;3.40;;;;;;;23.16;100.00;99948.25;4989867;28;20217;-79
2022/07/09 10:12:10;;;;;;;4.07;3.57;;;;;;;23.38;100.00;99942.31;4992894;28;20213;-79
2022/07/09 10:14:39;;;;;;;4.75;3.03;;;;;;;23.79;100.00;99937.09;4992434;28;20278;-80
2022/07/09 10:17:13;;;;;;;4.57;3.30;;;;;;;24.09;100.00;99935.66;4991166;28;20670;-79
2022/07/09 10:19:53;;;;;;;4.25;2.50;;;;;;;24.77;100.00;99929.97;4992544;28;20719;-79
2022/07/09 10:22:22;;;;;;;2.05;1.77;;;;;;;25.31;89.15;99926.72;4991248;28;20202;-79
2022/07/09 10:24:53;;;;;;;2.17;1.98;;;;;;;25.64;81.89;99928.25;4982929;28;20207;-79
2022/07/09 10:27:22;;;;;;;2.00;1.80;;;;;;;24.99;88.79;99922.16;4993272;28;20202;-79
2022/07/09 10:29:57;;;;;;;5.10;2.60;;;;;;;25.09;89.89;99915.59;4992340;28;20195;-79
2022/07/09 10:32:27;;;;;;;5.78;2.60;;;;;;;24.27;92.94;99909.28;4991237;28;20191;-78
2022/07/09 10:34:59;;;;;;;2.85;2.20;;;;;;;24.53;91.71;99921.88;4988195;28;20210;-79
2022/07/09 10:37:42;;;;;;;2.70;2.17;;;;;;;24.63;90.98;99913.56;5004620;28;20681;-79
2022/07/09 10:40:14;;;;;;;2.90;2.00;;;;;;;24.87;87.31;99901.84;4989154;28;20203;-79
2022/07/09 10:42:44;;;;;;;2.30;2.10;;;;;;;25.07;87.50;99901.31;4989330;28;20370;-79
2022/07/09 10:45:23;;;;;;;2.10;1.35;;;;;;;25.06;78.23;99906.94;4992485;28;20203;-78
2022/07/09 10:47:53;;;;;;;1.33;1.23;;;;;;;24.85;77.31;99899.31;4988293;28;20282;-78
2022/07/09 10:50:21;;;;;;;2.67;1.63;;;;;;;24.41;81.32;99906.94;4989294;28;20210;-79
2022/07/09 10:52:50;;;;;;;2.13;1.40;;;;;;;24.70;83.20;99901.84;4991804;28;20729;-79
2022/07/09 10:55:21;;;;;;;1.25;1.15;;;;;;;24.75;82.49;99898.66;4986943;28;20213;-81
2022/07/09 10:57:49;;;;;;;1.65;1.38;;;;;;;24.62;84.80;99901.06;4989809;28;20230;-79
2022/07/09 11:00:18;;;;;;;1.65;1.52;;;;;;;24.67;85.20;99896.78;4987391;28;20293;-78
2022/07/09 11:02:56;;;;;;;1.38;1.27;;;;;;;25.55;80.80;99891.31;4987939;28;20214;-79
2022/07/09 11:05:25;;;;;;;2.35;1.55;;;;;;;26.17;74.44;99887.78;4991943;28;20199;-79
2022/07/09 11:07:59;;;;;;;3.83;1.50;;;;;;;25.54;71.39;99892.34;4988393;28;20202;-79
2022/07/09 11:10:30;;;;;;;2.38;1.55;;;;;;;25.46;75.60;99881.53;4992016;28;20255;-79
2022/07/09 11:13:00;;;;;;;1.95;1.40;;;;;;;25.66;70.82;99884.66;4940245;28;20202;-79
2022/07/09 11:15:30;;;;;;;1.80;1.30;;;;;;;26.07;68.54;99888.03;4996352;28;20203;-79
2022/07/09 11:18:00;;;;;;;2.33;1.38;;;;;;;26.53;67.25;99882.59;4987699;28;20226;-79
2022/07/09 11:20:29;;;;;;;1.20;1.10;;;;;;;27.16;64.18;99883.19;4988979;28;20281;-79
2022/07/09 11:23:00;;;;;;;1.65;1.17;;;;;;;26.77;61.48;99873.38;4991452;28;20670;-79
2022/07/09 11:25:30;;;;;;;1.90;1.20;;;;;;;26.98;64.24;99869.94;4987424;28;20199;-79
2022/07/09 11:27:59;;;;;;;1.85;1.55;;;;;;;26.24;64.55;99861.56;4987109;28;20195;-79